createdAt,value
2022-08-09T00:00:50.224Z,990.760
2022-08-09T00:02:52.140Z,990.779
2022-08-09T00:06:16.875Z,990.727
2022-08-09T00:06:50.428Z,990.760
2022-08-09T00:08:57.691Z,990.725
2022-08-09T00:10:50.542Z,990.710
2022-08-09T00:12:53.582Z,990.750
2022-08-09T00:14:57.187Z,990.730
2022-08-09T00:16:50.865Z,990.704
2022-08-09T00:18:50.760Z,990.687
2022-08-09T00:20:50.859Z,990.693
2022-08-09T00:22:51.977Z,990.733
2022-08-09T00:24:50.308Z,990.766
2022-08-09T00:26:50.869Z,990.779
2022-08-09T00:28:53.518Z,990.801
2022-08-09T00:30:50.501Z,990.807
2022-08-09T00:32:51.114Z,990.826
2022-08-09T00:34:53.219Z,990.826
2022-08-09T00:36:52.362Z,990.864
2022-08-09T00:38:52.149Z,990.851
2022-08-09T00:40:53.709Z,990.883
2022-08-09T00:44:09.381Z,990.867
2022-08-09T00:44:49.914Z,990.867
2022-08-09T00:47:05.850Z,990.870
2022-08-09T00:48:56.412Z,990.879
2022-08-09T00:50:52.757Z,990.904
2022-08-09T00:52:50.137Z,990.892
2022-08-09T00:54:50.212Z,990.908
2022-08-09T00:56:50.913Z,990.903
2022-08-09T00:58:49.898Z,990.903
2022-08-09T01:00:50.264Z,990.857
2022-08-09T01:02:50.261Z,990.862
2022-08-09T01:04:51.363Z,990.848
2022-08-09T01:06:55.941Z,990.847
2022-08-09T01:08:51.872Z,990.857
2022-08-09T01:10:53.745Z,990.841
2022-08-09T01:12:52.934Z,990.856
2022-08-09T01:14:53.104Z,990.899
2022-08-09T01:16:52.242Z,990.865
2022-08-09T01:19:05.071Z,990.918
2022-08-09T01:20:50.144Z,990.938
2022-08-09T01:22:55.248Z,990.895
2022-08-09T01:24:52.539Z,990.918
2022-08-09T01:26:54.283Z,990.905
2022-08-09T01:28:51.282Z,990.931
2022-08-09T01:30:55.044Z,990.945
2022-08-09T01:32:51.214Z,990.906
2022-08-09T01:34:51.433Z,990.941
2022-08-09T01:36:49.886Z,990.924
2022-08-09T01:38:49.901Z,990.921
2022-08-09T01:41:05.481Z,990.964
2022-08-09T01:42:52.106Z,990.991
2022-08-09T01:44:50.241Z,990.969
2022-08-09T01:46:53.294Z,991.011
2022-08-09T01:48:52.263Z,991.025
2022-08-09T01:50:57.563Z,991.052
2022-08-09T01:52:50.946Z,991.024
2022-08-09T01:54:50.836Z,991.028
2022-08-09T01:56:52.138Z,991.062
2022-08-09T01:58:50.192Z,991.065
2022-08-09T02:00:50.942Z,991.106
2022-08-09T02:02:50.341Z,991.124
2022-08-09T02:04:50.038Z,991.149
2022-08-09T02:07:02.862Z,991.149
2022-08-09T02:09:00.129Z,991.132
2022-08-09T02:10:51.999Z,991.134
2022-08-09T02:12:50.124Z,991.105
2022-08-09T02:14:52.187Z,991.147
2022-08-09T02:17:15.620Z,991.105
2022-08-09T02:18:50.818Z,991.143
2022-08-09T02:20:50.256Z,991.123
2022-08-09T02:22:50.158Z,991.112
2022-08-09T02:24:52.333Z,991.138
2022-08-09T02:26:50.965Z,991.157
2022-08-09T02:28:50.039Z,991.193
2022-08-09T02:30:52.057Z,991.226
2022-08-09T02:32:51.339Z,991.219
2022-08-09T02:34:57.913Z,991.219
2022-08-09T02:36:52.954Z,991.268
2022-08-09T02:38:50.812Z,991.267
2022-08-09T02:40:50.422Z,991.236
2022-08-09T02:42:51.578Z,991.261
2022-08-09T02:44:50.755Z,991.262
2022-08-09T02:46:52.596Z,991.287
2022-08-09T02:48:51.499Z,991.300
2022-08-09T02:50:56.797Z,991.285
2022-08-09T02:52:55.791Z,991.270
2022-08-09T02:54:57.470Z,991.260
2022-08-09T02:56:57.464Z,991.207
2022-08-09T02:58:50.601Z,991.191
2022-08-09T03:01:04.733Z,991.188
2022-08-09T03:03:01.050Z,991.199
2022-08-09T03:04:51.205Z,991.168
2022-08-09T03:06:51.783Z,991.187
2022-08-09T03:08:52.633Z,991.166
2022-08-09T03:10:52.399Z,991.126
2022-08-09T03:12:52.987Z,991.139
2022-08-09T03:14:49.922Z,991.183
2022-08-09T03:16:50.222Z,991.158
2022-08-09T03:18:55.839Z,991.168
2022-08-09T03:20:52.686Z,991.150
2022-08-09T03:23:14.802Z,991.209
2022-08-09T03:25:27.098Z,991.210
2022-08-09T03:26:53.723Z,991.228
2022-08-09T03:28:55.415Z,991.273
2022-08-09T03:30:51.779Z,991.262
2022-08-09T03:32:51.821Z,991.282
2022-08-09T03:34:55.948Z,991.282
2022-08-09T03:37:10.833Z,991.305
2022-08-09T03:38:50.559Z,991.287
2022-08-09T03:40:50.950Z,991.277
2022-08-09T03:42:50.715Z,991.342
2022-08-09T03:44:49.821Z,991.355
2022-08-09T03:46:50.719Z,991.403
2022-08-09T03:48:52.384Z,991.408
2022-08-09T03:50:52.246Z,991.427
2022-08-09T03:52:52.498Z,991.441
2022-08-09T03:54:51.324Z,991.442
2022-08-09T03:56:52.474Z,991.418
2022-08-09T03:58:50.508Z,991.411
2022-08-09T04:00:50.718Z,991.400
2022-08-09T04:02:53.750Z,991.407
2022-08-09T04:04:51.225Z,991.429
2022-08-09T04:06:50.494Z,991.460
2022-08-09T04:08:53.868Z,991.482
2022-08-09T04:10:50.446Z,991.484
2022-08-09T04:12:51.614Z,991.526
2022-08-09T04:15:11.283Z,991.534
2022-08-09T04:16:50.378Z,991.521
2022-08-09T04:18:51.585Z,991.529
2022-08-09T04:20:51.837Z,991.594
2022-08-09T04:22:50.767Z,991.588
2022-08-09T04:24:50.873Z,991.588
2022-08-09T04:26:50.352Z,991.591
2022-08-09T04:28:50.160Z,991.596
2022-08-09T04:30:50.205Z,991.628
2022-08-09T04:32:50.400Z,991.619
2022-08-09T04:34:57.928Z,991.657
2022-08-09T04:36:52.755Z,991.665
2022-08-09T04:38:50.710Z,991.692
2022-08-09T04:40:57.392Z,991.680
2022-08-09T04:42:51.004Z,991.716
2022-08-09T04:44:53.545Z,991.757
2022-08-09T04:47:05.952Z,991.754
2022-08-09T04:48:58.658Z,991.813
2022-08-09T04:50:50.446Z,991.774
2022-08-09T04:52:50.975Z,991.781
2022-08-09T04:54:52.371Z,991.794
2022-08-09T04:56:50.802Z,991.828
2022-08-09T04:58:55.411Z,991.871
2022-08-09T05:00:51.169Z,991.893
2022-08-09T05:02:53.545Z,991.912
2022-08-09T05:04:56.499Z,991.898
2022-08-09T05:06:51.576Z,991.954
2022-08-09T05:08:50.576Z,991.932
2022-08-09T05:10:49.918Z,991.919
2022-08-09T05:12:50.807Z,991.996
2022-08-09T05:14:52.123Z,992.015
2022-08-09T05:16:59.920Z,992.017
2022-08-09T05:19:00.794Z,991.998
2022-08-09T05:20:51.167Z,992.024
2022-08-09T05:23:55.078Z,991.987
2022-08-09T05:25:02.664Z,992.009
2022-08-09T05:26:50.402Z,992.014
2022-08-09T05:28:52.427Z,992.010
2022-08-09T05:30:52.338Z,992.018
2022-08-09T05:32:53.493Z,992.044
2022-08-09T05:34:50.083Z,992.060
2022-08-09T05:36:53.015Z,992.070
2022-08-09T05:38:50.302Z,992.078
2022-08-09T05:40:51.158Z,992.081
2022-08-09T05:42:50.706Z,992.114
2022-08-09T05:44:52.422Z,992.111
2022-08-09T05:46:49.938Z,992.130
2022-08-09T05:49:00.188Z,992.116
2022-08-09T05:51:17.014Z,992.186
2022-08-09T05:52:55.202Z,992.181
2022-08-09T05:54:50.311Z,992.206
2022-08-09T05:56:56.984Z,992.199
2022-08-09T05:58:49.922Z,992.183
2022-08-09T06:00:51.321Z,992.216
2022-08-09T06:02:57.568Z,992.314
2022-08-09T06:04:56.001Z,992.313
2022-08-09T06:06:51.929Z,992.323
2022-08-09T06:08:53.182Z,992.283
2022-08-09T06:10:51.800Z,992.349
2022-08-09T06:13:11.931Z,992.341
2022-08-09T06:14:50.598Z,992.395
2022-08-09T06:16:52.878Z,992.404
2022-08-09T06:18:51.092Z,992.408
2022-08-09T06:20:58.786Z,992.433
2022-08-09T06:22:50.125Z,992.406
2022-08-09T06:24:53.347Z,992.407
2022-08-09T06:26:50.571Z,992.477
2022-08-09T06:29:05.593Z,992.444
2022-08-09T06:30:50.913Z,992.445
2022-08-09T06:33:13.438Z,992.446
2022-08-09T06:34:53.436Z,992.464
2022-08-09T06:37:00.170Z,992.480
2022-08-09T06:38:50.795Z,992.462
2022-08-09T06:40:55.395Z,992.490
2022-08-09T06:42:50.152Z,992.498
2022-08-09T06:44:54.860Z,992.470
2022-08-09T06:46:55.870Z,992.480
2022-08-09T06:49:00.632Z,992.458
2022-08-09T06:50:50.749Z,992.498
2022-08-09T06:52:49.915Z,992.504
2022-08-09T06:54:51.023Z,992.475
2022-08-09T06:56:51.097Z,992.524
2022-08-09T07:00:47.940Z,992.510
2022-08-09T07:01:00.105Z,992.502
2022-08-09T07:02:50.007Z,992.476
2022-08-09T07:04:49.864Z,992.476
2022-08-09T07:07:00.992Z,992.468
2022-08-09T07:08:50.669Z,992.487
2022-08-09T07:10:51.008Z,992.487
2022-08-09T07:12:58.466Z,992.505
2022-08-09T07:14:53.645Z,992.505
2022-08-09T07:16:58.688Z,992.529
2022-08-09T07:18:50.592Z,992.545
2022-08-09T07:20:52.233Z,992.531
2022-08-09T07:22:54.727Z,992.526
2022-08-09T07:24:52.326Z,992.470
2022-08-09T07:26:51.158Z,992.517
2022-08-09T07:29:11.898Z,992.520
2022-08-09T07:30:50.717Z,992.531
2022-08-09T07:32:52.503Z,992.568
2022-08-09T07:34:52.535Z,992.529
2022-08-09T07:36:53.146Z,992.591
2022-08-09T07:39:02.457Z,992.555
2022-08-09T07:41:10.923Z,992.506
2022-08-09T07:42:50.538Z,992.504
2022-08-09T07:45:01.500Z,992.550
2022-08-09T07:46:52.353Z,992.550
2022-08-09T07:49:00.610Z,992.556
2022-08-09T07:52:04.227Z,992.544
2022-08-09T07:52:50.245Z,992.544
2022-08-09T07:54:53.546Z,992.512
2022-08-09T07:56:50.526Z,992.512
2022-08-09T07:58:50.081Z,992.548
2022-08-09T08:01:11.062Z,992.513
2022-08-09T08:02:52.008Z,992.519
2022-08-09T08:04:54.261Z,992.504
2022-08-09T08:07:27.175Z,992.538
2022-08-09T08:09:07.886Z,992.526
2022-08-09T08:12:08.661Z,992.513
2022-08-09T08:12:50.341Z,992.513
2022-08-09T08:14:51.531Z,992.476
2022-08-09T08:17:08.897Z,992.487
2022-08-09T08:18:49.987Z,992.484
2022-08-09T08:20:50.165Z,992.476
2022-08-09T08:23:03.904Z,992.518
2022-08-09T08:24:51.300Z,992.520
2022-08-09T08:26:57.071Z,992.459
2022-08-09T08:28:51.639Z,992.421
2022-08-09T08:30:50.911Z,992.417
2022-08-09T08:32:54.308Z,992.378
2022-08-09T08:34:55.543Z,992.385
2022-08-09T08:36:52.291Z,992.508
2022-08-09T08:38:53.184Z,992.518
2022-08-09T08:40:51.123Z,992.493
2022-08-09T08:42:51.126Z,992.511
2022-08-09T08:44:50.224Z,992.537
2022-08-09T08:47:12.187Z,992.562
2022-08-09T08:48:54.247Z,992.512
2022-08-09T08:50:53.331Z,992.492
2022-08-09T08:53:01.178Z,992.544
2022-08-09T08:54:50.496Z,992.577
2022-08-09T08:56:50.323Z,992.545
2022-08-09T08:58:52.138Z,992.527
2022-08-09T09:00:57.236Z,992.510
2022-08-09T09:02:56.101Z,992.582
2022-08-09T09:04:53.657Z,992.547
2022-08-09T09:06:50.000Z,992.524
2022-08-09T09:08:59.952Z,992.552
2022-08-09T09:10:51.383Z,992.576
2022-08-09T09:12:51.541Z,992.572
2022-08-09T09:14:52.185Z,992.572
2022-08-09T09:16:53.699Z,992.550
2022-08-09T09:19:29.216Z,992.494
2022-08-09T09:20:52.372Z,992.441
2022-08-09T09:22:50.557Z,992.441
2022-08-09T09:24:50.773Z,992.427
2022-08-09T09:26:50.723Z,992.425
2022-08-09T09:29:11.444Z,992.426
2022-08-09T09:30:50.057Z,992.368
2022-08-09T09:32:50.064Z,992.353
2022-08-09T09:34:50.297Z,992.391
2022-08-09T09:36:55.051Z,992.394
2022-08-09T09:38:50.007Z,992.362
2022-08-09T09:40:52.530Z,992.344
2022-08-09T09:42:50.448Z,992.344
2022-08-09T09:44:50.660Z,992.338
2022-08-09T09:46:52.874Z,992.354
2022-08-09T09:48:49.961Z,992.336
2022-08-09T09:50:52.748Z,992.294
2022-08-09T09:52:57.574Z,992.292
2022-08-09T09:54:56.171Z,992.269
2022-08-09T09:58:00.464Z,992.269
2022-08-09T09:58:54.764Z,992.316
2022-08-09T10:01:00.013Z,992.275
2022-08-09T10:02:52.057Z,992.240
2022-08-09T10:04:51.133Z,992.272
2022-08-09T10:06:54.698Z,992.218
2022-08-09T10:08:58.025Z,992.179
2022-08-09T10:10:50.678Z,992.212
2022-08-09T10:12:52.834Z,992.206
2022-08-09T10:14:52.277Z,992.223
2022-08-09T10:17:24.176Z,992.297
2022-08-09T10:18:54.840Z,992.217
2022-08-09T10:20:52.374Z,992.247
2022-08-09T10:22:51.324Z,992.190
2022-08-09T10:24:50.357Z,992.146
2022-08-09T10:26:51.946Z,992.141
2022-08-09T10:29:21.560Z,992.204
2022-08-09T10:32:15.178Z,992.188
2022-08-09T10:32:51.371Z,992.253
2022-08-09T10:34:50.414Z,992.222
2022-08-09T10:36:49.922Z,992.214
2022-08-09T10:39:00.563Z,992.193
2022-08-09T10:40:50.774Z,992.089
2022-08-09T10:42:53.550Z,992.110
2022-08-09T10:44:53.133Z,992.074
2022-08-09T10:47:02.983Z,992.077
2022-08-09T10:48:52.651Z,991.982
2022-08-09T10:50:50.830Z,991.955
2022-08-09T10:52:50.797Z,991.970
2022-08-09T10:54:53.686Z,991.974
2022-08-09T10:56:50.809Z,991.921
2022-08-09T10:58:54.461Z,991.915
2022-08-09T11:03:01.920Z,991.821
2022-08-09T11:03:16.612Z,991.874
2022-08-09T11:04:57.285Z,991.902
2022-08-09T11:06:58.105Z,991.932
2022-08-09T11:09:15.700Z,991.876
2022-08-09T11:11:09.040Z,991.928
2022-08-09T11:12:54.347Z,991.911
2022-08-09T11:14:50.339Z,991.840
2022-08-09T11:16:51.931Z,991.805
2022-08-09T11:18:56.609Z,991.841
2022-08-09T11:20:51.566Z,991.846
2022-08-09T11:22:59.171Z,991.856
2022-08-09T11:24:50.746Z,991.858
2022-08-09T11:26:55.240Z,991.857
2022-08-09T11:28:57.475Z,991.820
2022-08-09T11:30:51.242Z,991.780
2022-08-09T11:32:51.807Z,991.749
2022-08-09T11:34:51.970Z,991.813
2022-08-09T11:36:50.119Z,991.783
2022-08-09T11:38:55.032Z,991.800
2022-08-09T11:40:55.127Z,991.758
2022-08-09T11:42:51.360Z,991.754
2022-08-09T11:44:50.431Z,991.777
2022-08-09T11:46:49.915Z,991.733
2022-08-09T11:48:49.886Z,991.738
2022-08-09T11:51:19.308Z,991.738
2022-08-09T11:53:21.220Z,991.661
2022-08-09T11:54:50.731Z,991.630
2022-08-09T11:56:51.164Z,991.656
2022-08-09T11:58:50.664Z,991.611
2022-08-09T12:00:53.417Z,991.642
2022-08-09T12:02:53.959Z,991.594
2022-08-09T12:04:59.725Z,991.557
2022-08-09T12:06:56.371Z,991.558
2022-08-09T12:08:49.817Z,991.502
2022-08-09T12:10:54.231Z,991.483
2022-08-09T12:12:53.586Z,991.485
2022-08-09T12:15:09.213Z,991.483
2022-08-09T12:16:56.522Z,991.464
2022-08-09T12:18:54.499Z,991.460
2022-08-09T12:20:51.107Z,991.529
2022-08-09T12:22:51.642Z,991.462
2022-08-09T12:24:51.267Z,991.586
2022-08-09T12:29:00.417Z,991.594
2022-08-09T12:29:23.891Z,991.502
2022-08-09T12:30:52.285Z,991.436
2022-08-09T12:32:50.532Z,991.419
2022-08-09T12:34:49.878Z,991.419
2022-08-09T12:36:50.986Z,991.468
2022-08-09T12:38:51.101Z,991.449
2022-08-09T12:40:52.271Z,991.436
2022-08-09T12:42:51.271Z,991.400
2022-08-09T12:44:54.867Z,991.400
2022-08-09T12:46:50.501Z,991.385
2022-08-09T12:48:50.403Z,991.422
2022-08-09T12:50:50.428Z,991.336
2022-08-09T12:53:18.471Z,991.250
2022-08-09T12:56:11.249Z,991.340
2022-08-09T12:56:54.827Z,991.325
2022-08-09T12:58:58.176Z,991.363
2022-08-09T13:00:52.075Z,991.333
2022-08-09T13:02:54.573Z,991.357
2022-08-09T13:04:52.041Z,991.276
2022-08-09T13:06:55.084Z,991.163
2022-08-09T13:08:56.490Z,991.240
2022-08-09T13:10:52.813Z,991.204
2022-08-09T13:13:11.024Z,991.173
2022-08-09T13:14:55.497Z,991.149
2022-08-09T13:16:51.426Z,991.109
2022-08-09T13:18:54.094Z,991.109
2022-08-09T13:22:34.797Z,991.103
2022-08-09T13:24:06.693Z,991.045
2022-08-09T13:24:59.518Z,991.071
2022-08-09T13:26:51.079Z,991.069
2022-08-09T13:28:51.329Z,991.022
2022-08-09T13:32:12.447Z,991.029
2022-08-09T13:32:50.003Z,990.966
2022-08-09T13:34:52.413Z,990.929
2022-08-09T13:36:50.532Z,990.907
2022-08-09T13:39:08.377Z,990.859
2022-08-09T13:41:22.155Z,990.909
2022-08-09T13:42:50.089Z,990.890
2022-08-09T13:44:50.323Z,990.902
2022-08-09T13:47:18.274Z,990.964
2022-08-09T13:48:51.216Z,990.875
2022-08-09T13:50:50.193Z,990.909
2022-08-09T13:52:50.180Z,990.928
2022-08-09T13:55:07.273Z,990.886
2022-08-09T13:56:51.364Z,990.828
2022-08-09T13:58:50.137Z,990.788
2022-08-09T14:00:55.037Z,990.843
2022-08-09T14:03:17.300Z,990.819
2022-08-09T14:05:00.759Z,990.842
2022-08-09T14:06:54.402Z,990.860
2022-08-09T14:08:50.432Z,990.891
2022-08-09T14:10:53.660Z,990.841
2022-08-09T14:12:50.755Z,990.860
2022-08-09T14:14:56.655Z,990.905
2022-08-09T14:16:50.553Z,990.854
2022-08-09T14:18:52.001Z,990.964
2022-08-09T14:20:50.349Z,990.965
2022-08-09T14:22:52.190Z,990.923
2022-08-09T14:24:54.559Z,990.877
2022-08-09T14:26:54.303Z,990.909
2022-08-09T14:28:51.814Z,990.830
2022-08-09T14:30:50.798Z,990.831
2022-08-09T14:32:49.884Z,990.831
2022-08-09T14:34:57.086Z,990.823
2022-08-09T14:36:50.735Z,990.776
2022-08-09T14:38:53.353Z,990.759
2022-08-09T14:41:24.169Z,990.716
2022-08-09T14:42:50.560Z,990.759
2022-08-09T14:45:01.165Z,990.771
2022-08-09T14:47:15.712Z,990.737
2022-08-09T14:48:50.753Z,990.764
2022-08-09T14:50:51.386Z,990.808
2022-08-09T14:52:51.261Z,990.756
2022-08-09T14:54:52.650Z,990.779
2022-08-09T14:56:59.435Z,990.787
2022-08-09T14:58:58.072Z,990.787
2022-08-09T15:00:52.600Z,990.777
2022-08-09T15:02:52.443Z,990.728
2022-08-09T15:04:51.577Z,990.695
2022-08-09T15:06:51.935Z,990.735
2022-08-09T15:08:57.092Z,990.684
2022-08-09T15:11:05.114Z,990.685
2022-08-09T15:12:50.893Z,990.611
2022-08-09T15:14:50.359Z,990.540
2022-08-09T15:16:50.689Z,990.571
2022-08-09T15:18:52.744Z,990.543
2022-08-09T15:21:53.834Z,990.624
2022-08-09T15:23:56.679Z,990.613
2022-08-09T15:24:50.080Z,990.546
2022-08-09T15:26:53.777Z,990.581
2022-08-09T15:28:55.644Z,990.469
2022-08-09T15:31:14.668Z,990.493
2022-08-09T15:32:53.068Z,990.542
2022-08-09T15:34:53.346Z,990.471
2022-08-09T15:36:52.811Z,990.435
2022-08-09T15:38:50.686Z,990.420
2022-08-09T15:40:50.801Z,990.425
2022-08-09T15:42:50.024Z,990.401
2022-08-09T15:44:50.129Z,990.396
2022-08-09T15:46:51.110Z,990.364
2022-08-09T15:49:20.577Z,990.432
2022-08-09T15:50:49.834Z,990.432
2022-08-09T15:53:18.617Z,990.453
2022-08-09T15:54:51.688Z,990.442
2022-08-09T15:56:49.976Z,990.432
2022-08-09T15:58:51.622Z,990.453
2022-08-09T16:00:51.000Z,990.388
2022-08-09T16:02:54.944Z,990.506
2022-08-09T16:04:50.912Z,990.465
2022-08-09T16:06:50.947Z,990.519
2022-08-09T16:08:50.861Z,990.484
2022-08-09T16:10:57.157Z,990.467
2022-08-09T16:12:55.624Z,990.456
2022-08-09T16:14:51.532Z,990.390
2022-08-09T16:16:51.594Z,990.417
2022-08-09T16:18:53.586Z,990.401
2022-08-09T16:20:50.727Z,990.377
2022-08-09T16:22:52.587Z,990.367
2022-08-09T16:24:59.788Z,990.319
2022-08-09T16:26:50.148Z,990.300
2022-08-09T16:28:52.421Z,990.309
2022-08-09T16:30:59.780Z,990.362
2022-08-09T16:32:55.097Z,990.306
2022-08-09T16:34:58.817Z,990.263
2022-08-09T16:36:50.183Z,990.309
2022-08-09T16:38:53.710Z,990.276
2022-08-09T16:40:51.163Z,990.279
2022-08-09T16:42:50.933Z,990.301
2022-08-09T16:44:50.096Z,990.327
2022-08-09T16:48:37.274Z,990.327
2022-08-09T16:49:13.291Z,990.352
2022-08-09T16:51:13.570Z,990.288
2022-08-09T16:52:50.949Z,990.322
2022-08-09T16:54:50.553Z,990.311
2022-08-09T16:56:50.521Z,990.305
2022-08-09T16:58:51.065Z,990.298
2022-08-09T17:00:50.466Z,990.323
2022-08-09T17:02:51.256Z,990.283
2022-08-09T17:04:52.954Z,990.342
2022-08-09T17:08:41.862Z,990.329
2022-08-09T17:09:44.799Z,990.326
2022-08-09T17:10:52.206Z,990.312
2022-08-09T17:12:50.571Z,990.350
2022-08-09T17:14:58.698Z,990.331
2022-08-09T17:16:50.718Z,990.380
2022-08-09T17:18:50.611Z,990.354
2022-08-09T17:20:53.506Z,990.359
2022-08-09T17:22:53.491Z,990.375
2022-08-09T17:25:04.553Z,990.373
2022-08-09T17:26:53.942Z,990.436
2022-08-09T17:28:51.154Z,990.421
2022-08-09T17:30:52.139Z,990.444
2022-08-09T17:32:50.057Z,990.447
2022-08-09T17:35:12.490Z,990.449
2022-08-09T17:36:54.190Z,990.449
2022-08-09T17:38:59.802Z,990.462
2022-08-09T17:40:50.633Z,990.524
2022-08-09T17:43:03.362Z,990.558
2022-08-09T17:44:50.261Z,990.550
2022-08-09T17:46:57.967Z,990.534
2022-08-09T17:48:53.114Z,990.600
2022-08-09T17:51:09.478Z,990.565
2022-08-09T17:52:51.941Z,990.590
2022-08-09T17:54:51.979Z,990.601
2022-08-09T17:56:50.523Z,990.621
2022-08-09T17:58:50.555Z,990.636
2022-08-09T18:00:58.616Z,990.636
2022-08-09T18:02:59.125Z,990.661
2022-08-09T18:04:50.571Z,990.687
2022-08-09T18:06:56.208Z,990.661
2022-08-09T18:08:50.909Z,990.719
2022-08-09T18:11:02.585Z,990.701
2022-08-09T18:13:40.394Z,990.716
2022-08-09T18:14:56.771Z,990.721
2022-08-09T18:16:53.399Z,990.739
2022-08-09T18:18:50.739Z,990.750
2022-08-09T18:21:19.412Z,990.725
2022-08-09T18:22:51.673Z,990.741
2022-08-09T18:24:50.645Z,990.774
2022-08-09T18:26:51.148Z,990.766
2022-08-09T18:30:36.817Z,990.740
2022-08-09T18:30:50.387Z,990.752
2022-08-09T18:32:55.180Z,990.742
2022-08-09T18:34:52.058Z,990.770
2022-08-09T18:36:50.152Z,990.741
2022-08-09T18:38:50.288Z,990.766
2022-08-09T18:40:50.668Z,990.795
2022-08-09T18:42:50.887Z,990.802
2022-08-09T18:44:49.846Z,990.819
2022-08-09T18:47:12.635Z,990.898
2022-08-09T18:48:50.049Z,990.887
2022-08-09T18:50:50.357Z,990.900
2022-08-09T18:52:51.261Z,990.908
2022-08-09T18:54:53.988Z,990.923
2022-08-09T18:56:55.473Z,990.951
2022-08-09T18:58:56.071Z,990.973
2022-08-09T19:00:50.044Z,991.055
2022-08-09T19:02:58.206Z,991.104
2022-08-09T19:05:15.130Z,991.110
2022-08-09T19:06:51.178Z,991.118
2022-08-09T19:09:03.578Z,991.135
2022-08-09T19:10:54.347Z,991.157
2022-08-09T19:13:15.253Z,991.170
2022-08-09T19:14:51.905Z,991.232
2022-08-09T19:16:50.732Z,991.232
2022-08-09T19:18:50.470Z,991.256
2022-08-09T19:20:58.790Z,991.305
2022-08-09T19:22:55.265Z,991.301
2022-08-09T19:25:27.144Z,991.351
2022-08-09T19:26:51.997Z,991.373
2022-08-09T19:28:50.770Z,991.368
2022-08-09T19:30:51.010Z,991.397
2022-08-09T19:32:55.203Z,991.470
2022-08-09T19:34:54.257Z,991.428
2022-08-09T19:36:50.494Z,991.476
2022-08-09T19:38:51.235Z,991.431
2022-08-09T19:40:50.395Z,991.470
2022-08-09T19:42:50.770Z,991.466
2022-08-09T19:44:52.214Z,991.487
2022-08-09T19:46:54.032Z,991.565
2022-08-09T19:50:06.541Z,991.566
2022-08-09T19:50:54.681Z,991.635
2022-08-09T19:52:52.576Z,991.643
2022-08-09T19:54:50.608Z,991.664
2022-08-09T19:56:51.110Z,991.652
2022-08-09T19:59:18.819Z,991.671
2022-08-09T20:00:50.055Z,991.695
2022-08-09T20:04:07.992Z,991.701
2022-08-09T20:04:58.128Z,991.709
2022-08-09T20:06:50.167Z,991.706
2022-08-09T20:08:50.486Z,991.742
2022-08-09T20:10:50.478Z,991.741
2022-08-09T20:12:52.364Z,991.746
2022-08-09T20:14:54.248Z,991.736
2022-08-09T20:16:57.097Z,991.741
2022-08-09T20:19:43.458Z,991.739
2022-08-09T20:20:55.606Z,991.755
2022-08-09T20:22:50.321Z,991.757
2022-08-09T20:24:54.739Z,991.764
2022-08-09T20:26:50.975Z,991.769
2022-08-09T20:28:50.329Z,991.801
2022-08-09T20:30:50.758Z,991.767
2022-08-09T20:32:53.097Z,991.780
2022-08-09T20:34:51.712Z,991.761
2022-08-09T20:36:50.061Z,991.818
2022-08-09T20:39:17.164Z,991.849
2022-08-09T20:40:55.961Z,991.870
2022-08-09T20:43:11.947Z,991.885
2022-08-09T20:45:57.921Z,991.937
2022-08-09T20:46:51.305Z,991.902
2022-08-09T20:48:50.660Z,991.925
2022-08-09T20:50:58.554Z,991.919
2022-08-09T20:52:51.777Z,991.985
2022-08-09T20:54:54.049Z,991.993
2022-08-09T20:56:54.300Z,991.972
2022-08-09T20:58:57.979Z,991.959
2022-08-09T21:01:14.504Z,991.973
2022-08-09T21:02:52.834Z,991.970
2022-08-09T21:05:55.385Z,991.970
2022-08-09T21:06:50.566Z,992.002
2022-08-09T21:08:50.525Z,991.990
2022-08-09T21:10:53.889Z,991.983
2022-08-09T21:13:00.366Z,991.997
2022-08-09T21:14:57.619Z,991.995
2022-08-09T21:16:50.366Z,992.019
2022-08-09T21:20:05.533Z,992.059
2022-08-09T21:20:56.467Z,992.054
2022-08-09T21:22:55.261Z,992.074
2022-08-09T21:24:50.243Z,992.100
2022-08-09T21:26:51.196Z,992.058
2022-08-09T21:28:57.361Z,992.107
2022-08-09T21:30:50.269Z,992.092
2022-08-09T21:32:50.425Z,992.120
2022-08-09T21:34:52.801Z,992.145
2022-08-09T21:36:56.809Z,992.105
2022-08-09T21:38:59.800Z,992.078
2022-08-09T21:40:51.117Z,992.102
2022-08-09T21:42:54.985Z,992.119
2022-08-09T21:44:50.294Z,992.124
2022-08-09T21:46:50.548Z,992.128
2022-08-09T21:48:50.534Z,992.112
2022-08-09T21:50:51.755Z,992.149
2022-08-09T21:52:51.241Z,992.189
2022-08-09T21:55:05.005Z,992.182
2022-08-09T21:56:55.602Z,992.191
2022-08-09T21:58:52.415Z,992.191
2022-08-09T22:00:52.831Z,992.178
2022-08-09T22:03:00.058Z,992.225
2022-08-09T22:05:10.381Z,992.165
2022-08-09T22:07:04.923Z,992.186
2022-08-09T22:08:50.096Z,992.217
2022-08-09T22:11:49.289Z,992.255
2022-08-09T22:12:50.291Z,992.244
2022-08-09T22:14:51.525Z,992.315
2022-08-09T22:16:51.751Z,992.269
2022-08-09T22:18:55.482Z,992.313
2022-08-09T22:20:51.997Z,992.338
2022-08-09T22:22:50.030Z,992.348
2022-08-09T22:26:04.695Z,992.351
2022-08-09T22:26:52.449Z,992.351
2022-08-09T22:28:54.592Z,992.407
2022-08-09T22:30:50.564Z,992.427
2022-08-09T22:32:50.736Z,992.439
2022-08-09T22:36:00.567Z,992.472
2022-08-09T22:36:52.822Z,992.464
2022-08-09T22:38:50.228Z,992.478
2022-08-09T22:40:58.700Z,992.426
2022-08-09T22:42:50.574Z,992.415
2022-08-09T22:48:05.496Z,992.519
2022-08-09T22:48:07.223Z,992.488
2022-08-09T22:48:53.551Z,992.476
2022-08-09T22:50:53.923Z,992.463
2022-08-09T22:52:58.967Z,992.439
2022-08-09T22:54:50.062Z,992.401
2022-08-09T22:56:58.940Z,992.402
2022-08-09T22:58:50.754Z,992.391
2022-08-09T23:00:51.583Z,992.402
2022-08-09T23:02:51.046Z,992.374
2022-08-09T23:04:57.181Z,992.376
2022-08-09T23:06:50.580Z,992.369
2022-08-09T23:08:50.566Z,992.353
2022-08-09T23:10:50.382Z,992.300
2022-08-09T23:12:50.293Z,992.265
2022-08-09T23:14:54.423Z,992.275
2022-08-09T23:16:50.730Z,992.300
2022-08-09T23:18:50.636Z,992.281
2022-08-09T23:20:50.598Z,992.344
2022-08-09T23:22:50.561Z,992.331
2022-08-09T23:24:50.392Z,992.264
2022-08-09T23:26:50.724Z,992.294
2022-08-09T23:28:50.659Z,992.276
2022-08-09T23:30:52.409Z,992.330
2022-08-09T23:32:50.349Z,992.310
2022-08-09T23:34:50.770Z,992.287
2022-08-09T23:36:50.208Z,992.288
2022-08-09T23:38:50.082Z,992.259
2022-08-09T23:40:50.108Z,992.269
2022-08-09T23:42:49.876Z,992.253
2022-08-09T23:44:50.059Z,992.216
2022-08-09T23:46:58.170Z,992.216
2022-08-09T23:48:50.222Z,992.204
2022-08-09T23:50:50.184Z,992.211
2022-08-09T23:52:50.498Z,992.217
2022-08-09T23:54:50.311Z,992.231
2022-08-09T23:56:58.153Z,992.251
2022-08-09T23:58:50.263Z,992.219
